createdAt,value
2022-10-13T00:00:23.469Z,101889.72
2022-10-13T00:05:31.533Z,101889.13
2022-10-13T00:10:41.187Z,101879.09
2022-10-13T00:15:49.707Z,101870.55
2022-10-13T00:20:57.241Z,101873.81
2022-10-13T00:26:06.603Z,101866.67
2022-10-13T00:31:22.341Z,101865.09
2022-10-13T00:36:30.365Z,101860.98
2022-10-13T00:41:35.937Z,101859.63
2022-10-13T00:46:43.147Z,101859.59
2022-10-13T00:51:51.955Z,101856.65
2022-10-13T00:56:59.599Z,101856.20
2022-10-13T01:02:07.334Z,101851.08
2022-10-13T01:07:15.381Z,101848.38
2022-10-13T01:12:27.643Z,101845.45
2022-10-13T01:17:45.245Z,101841.41
2022-10-13T01:23:08.775Z,101845.14
2022-10-13T01:28:36.538Z,101842.23
2022-10-13T01:33:51.232Z,101841.85
2022-10-13T01:39:07.155Z,101840.23
2022-10-13T01:44:22.421Z,101836.78
2022-10-13T01:49:39.349Z,101829.74
2022-10-13T01:54:51.897Z,101823.02
2022-10-13T01:59:59.782Z,101818.52
2022-10-13T02:05:19.853Z,101812.94
2022-10-13T02:10:33.692Z,101813.05
2022-10-13T02:15:47.527Z,101815.19
2022-10-13T02:20:55.654Z,101814.98
2022-10-13T02:26:03.843Z,101812.61
2022-10-13T02:31:12.114Z,101806.77
2022-10-13T02:36:19.328Z,101806.82
2022-10-13T02:41:26.672Z,101802.48
2022-10-13T02:46:33.923Z,101795.59
2022-10-13T02:51:41.280Z,101789.48
2022-10-13T02:56:48.645Z,101789.34
2022-10-13T03:01:57.129Z,101790.31
2022-10-13T03:07:06.478Z,101787.60
2022-10-13T03:12:13.946Z,101785.33
2022-10-13T03:17:21.410Z,101788.97
2022-10-13T03:22:29.116Z,101787.88
2022-10-13T03:27:36.752Z,101785.14
2022-10-13T03:32:44.224Z,101781.45
2022-10-13T03:37:51.340Z,101777.30
2022-10-13T03:42:58.670Z,101777.20
2022-10-13T03:48:06.030Z,101779.34
2022-10-13T03:53:13.415Z,101781.77
2022-10-13T03:58:24.377Z,101782.52
2022-10-13T04:03:34.668Z,101780.91
2022-10-13T04:08:42.238Z,101774.77
2022-10-13T04:13:49.479Z,101776.15
2022-10-13T04:18:58.437Z,101778.04
2022-10-13T04:24:07.276Z,101772.52
2022-10-13T04:29:15.112Z,101765.30
2022-10-13T04:34:22.839Z,101768.89
2022-10-13T04:39:30.168Z,101767.06
2022-10-13T04:44:37.352Z,101768.79
2022-10-13T04:49:45.705Z,101771.13
2022-10-13T04:54:53.091Z,101771.08
2022-10-13T05:00:02.570Z,101767.02
2022-10-13T05:05:16.771Z,101763.17
2022-10-13T05:10:24.834Z,101756.77
2022-10-13T05:15:31.801Z,101750.77
2022-10-13T05:20:38.785Z,101756.84
2022-10-13T05:25:45.878Z,101753.84
2022-10-13T05:30:58.200Z,101751.65
2022-10-13T05:36:08.631Z,101751.98
2022-10-13T05:41:17.697Z,101744.05
2022-10-13T05:46:24.677Z,101739.22
2022-10-13T05:51:35.914Z,101737.80
2022-10-13T05:56:48.359Z,101742.38
2022-10-13T06:01:56.490Z,101743.04
2022-10-13T06:07:05.562Z,101743.19
2022-10-13T06:12:13.041Z,101740.23
2022-10-13T06:17:20.242Z,101736.51
2022-10-13T06:22:27.328Z,101730.98
2022-10-13T06:27:34.937Z,101732.58
2022-10-13T06:32:41.823Z,101724.60
2022-10-13T06:37:50.491Z,101722.00
2022-10-13T06:42:57.693Z,101721.97
2022-10-13T06:48:04.877Z,101723.79
2022-10-13T06:53:12.631Z,101722.77
2022-10-13T06:58:19.828Z,101724.64
2022-10-13T07:03:26.851Z,101718.79
2022-10-13T07:08:34.403Z,101711.46
2022-10-13T07:13:45.318Z,101707.33
2022-10-13T07:18:55.583Z,101712.18
2022-10-13T07:24:04.466Z,101713.81
2022-10-13T07:29:11.517Z,101704.41
2022-10-13T07:34:18.620Z,101701.08
2022-10-13T07:39:26.229Z,101700.64
2022-10-13T07:44:33.371Z,101690.91
2022-10-13T07:49:40.488Z,101686.22
2022-10-13T07:54:47.813Z,101679.02
2022-10-13T07:59:55.085Z,101672.17
2022-10-13T08:05:03.018Z,101661.95
2022-10-13T08:10:11.509Z,101653.39
2022-10-13T08:15:18.791Z,101651.62
2022-10-13T08:20:28.897Z,101643.48
2022-10-13T08:25:44.841Z,101639.83
2022-10-13T08:30:53.731Z,101646.10
2022-10-13T08:36:01.273Z,101637.88
2022-10-13T08:41:26.004Z,101635.05
2022-10-13T08:46:47.319Z,101628.83
2022-10-13T08:51:55.453Z,101635.38
2022-10-13T08:57:02.908Z,101629.69
2022-10-13T09:02:17.528Z,101625.50
2022-10-13T09:07:30.037Z,101624.97
2022-10-13T09:12:37.086Z,101618.73
2022-10-13T09:17:44.419Z,101612.27
2022-10-13T09:23:05.242Z,101605.94
2022-10-13T09:28:19.798Z,101606.90
2022-10-13T09:33:27.316Z,101607.08
2022-10-13T09:38:35.184Z,101609.74
2022-10-13T09:43:59.597Z,101606.38
2022-10-13T09:49:09.361Z,101605.63
2022-10-13T09:54:34.476Z,101602.21
2022-10-13T09:59:51.783Z,101602.71
2022-10-13T10:05:05.189Z,101606.52
2022-10-13T10:10:24.330Z,101593.42
2022-10-13T10:15:39.955Z,101584.99
2022-10-13T10:20:57.770Z,101587.52
2022-10-13T10:26:12.150Z,101574.30
2022-10-13T10:31:31.840Z,101573.34
2022-10-13T10:36:51.533Z,101561.44
2022-10-13T10:42:07.600Z,101556.52
2022-10-13T10:47:23.482Z,101547.36
2022-10-13T10:52:36.392Z,101540.20
2022-10-13T10:57:57.548Z,101536.99
2022-10-13T11:03:11.702Z,101526.02
2022-10-13T11:08:31.628Z,101513.96
2022-10-13T11:13:54.056Z,101504.89
2022-10-13T11:19:07.632Z,101500.06
2022-10-13T11:24:49.035Z,101496.36
2022-10-13T11:30:00.172Z,101489.84
2022-10-13T11:35:22.261Z,101478.95
2022-10-13T11:40:34.835Z,101469.29
2022-10-13T11:46:02.032Z,101470.91
2022-10-13T11:51:23.967Z,101466.07
2022-10-13T11:56:48.262Z,101454.27
2022-10-13T12:02:01.443Z,101455.17
2022-10-13T12:07:11.974Z,101451.79
2022-10-13T12:12:23.145Z,101450.89
2022-10-13T12:17:36.003Z,101444.13
2022-10-13T12:22:50.348Z,101438.41
2022-10-13T12:27:59.783Z,101429.98
2022-10-13T12:33:24.021Z,101426.29
2022-10-13T12:38:31.348Z,101420.04
2022-10-13T12:43:39.857Z,101416.52
2022-10-13T12:48:48.550Z,101416.32
2022-10-13T12:53:56.068Z,101408.03
2022-10-13T12:59:03.252Z,101406.73
2022-10-13T13:04:29.612Z,101408.27
2022-10-13T13:09:39.326Z,101402.48
2022-10-13T13:14:49.637Z,101402.62
2022-10-13T13:19:58.386Z,101398.75
2022-10-13T13:25:06.685Z,101403.58
2022-10-13T13:30:18.672Z,101395.48
2022-10-13T13:35:26.214Z,101381.48
2022-10-13T13:40:33.762Z,101382.77
2022-10-13T13:45:41.190Z,101384.79
2022-10-13T13:50:51.155Z,101382.21
2022-10-13T13:55:58.359Z,101373.50
2022-10-13T14:01:05.507Z,101371.09
2022-10-13T14:06:19.929Z,101365.73
2022-10-13T14:11:27.096Z,101358.72
2022-10-13T14:16:34.785Z,101361.84
2022-10-13T14:21:46.098Z,101357.51
2022-10-13T14:26:58.263Z,101361.44
2022-10-13T14:32:05.775Z,101358.30
2022-10-13T14:37:13.139Z,101349.71
2022-10-13T14:42:23.298Z,101338.85
2022-10-13T14:47:31.507Z,101335.98
2022-10-13T14:52:38.685Z,101339.73
2022-10-13T14:57:46.053Z,101335.33
2022-10-13T15:02:53.252Z,101329.63
2022-10-13T15:08:00.675Z,101325.70
2022-10-13T15:13:07.793Z,101320.62
2022-10-13T15:18:15.591Z,101319.35
2022-10-13T15:23:21.055Z,101320.62
2022-10-13T15:28:30.260Z,101320.31
2022-10-13T15:33:37.759Z,101323.36
2022-10-13T15:38:44.951Z,101320.86
2022-10-13T15:43:51.854Z,101315.42
2022-10-13T15:49:00.303Z,101314.52
2022-10-13T15:54:07.359Z,101307.86
2022-10-13T15:59:14.445Z,101306.30
2022-10-13T16:04:21.670Z,101312.56
2022-10-13T16:09:33.249Z,101310.95
2022-10-13T16:14:43.186Z,101305.79
2022-10-13T16:19:50.169Z,101305.71
2022-10-13T16:24:57.139Z,101304.79
2022-10-13T16:30:04.400Z,101306.88
2022-10-13T16:35:12.440Z,101304.98
2022-10-13T16:40:19.620Z,101300.15
2022-10-13T16:45:47.865Z,101304.48
2022-10-13T16:50:54.160Z,101303.66
2022-10-13T16:56:02.248Z,101297.89
2022-10-13T17:01:11.227Z,101297.48
2022-10-13T17:06:20.182Z,101299.96
2022-10-13T17:11:35.994Z,101303.88
2022-10-13T17:16:45.297Z,101300.93
2022-10-13T17:21:52.346Z,101292.61
2022-10-13T17:26:59.332Z,101285.05
2022-10-13T17:32:06.404Z,101275.14
2022-10-13T17:37:13.376Z,101269.48
2022-10-13T17:42:20.444Z,101271.21
2022-10-13T17:47:27.448Z,101274.44
2022-10-13T17:52:34.608Z,101276.04
2022-10-13T17:57:42.053Z,101275.48
2022-10-13T18:02:49.526Z,101277.10
2022-10-13T18:08:00.922Z,101275.88
2022-10-13T18:13:08.450Z,101269.82
2022-10-13T18:18:16.004Z,101259.58
2022-10-13T18:23:24.643Z,101257.91
2022-10-13T18:28:37.721Z,101259.74
2022-10-13T18:33:46.432Z,101258.80
2022-10-13T18:38:55.488Z,101258.94
2022-10-13T18:44:03.848Z,101256.78
2022-10-13T18:49:13.716Z,101248.96
2022-10-13T18:54:23.826Z,101244.92
2022-10-13T18:59:34.724Z,101244.69
2022-10-13T19:04:44.825Z,101241.65
2022-10-13T19:09:53.092Z,101240.14
2022-10-13T19:15:00.800Z,101239.64
2022-10-13T19:20:09.876Z,101242.16
2022-10-13T19:25:17.950Z,101243.36
2022-10-13T19:30:24.040Z,101241.73
2022-10-13T19:35:40.176Z,101237.10
2022-10-13T19:40:49.976Z,101235.05
2022-10-13T19:45:59.855Z,101232.51
2022-10-13T19:51:10.331Z,101222.42
2022-10-13T19:56:28.253Z,101222.09
2022-10-13T20:01:40.191Z,101227.86
2022-10-13T20:06:54.135Z,101232.05
2022-10-13T20:12:01.955Z,101230.88
2022-10-13T20:17:12.906Z,101226.28
2022-10-13T20:22:21.369Z,101223.29
2022-10-13T20:27:29.115Z,101217.16
2022-10-13T20:32:36.625Z,101217.48
2022-10-13T20:37:44.541Z,101215.62
2022-10-13T20:42:55.570Z,101217.58
2022-10-13T20:48:03.802Z,101213.45
2022-10-13T20:53:11.608Z,101210.73
2022-10-13T20:58:24.963Z,101205.18
2022-10-13T21:03:34.090Z,101205.48
2022-10-13T21:08:47.725Z,101204.22
2022-10-13T21:13:58.582Z,101199.75
2022-10-13T21:19:06.879Z,101191.59
2022-10-13T21:24:17.151Z,101188.92
2022-10-13T21:29:25.124Z,101189.88
2022-10-13T21:34:33.457Z,101186.14
2022-10-13T21:39:41.286Z,101187.33
2022-10-13T21:44:48.792Z,101186.10
2022-10-13T21:49:57.786Z,101183.36
2022-10-13T21:55:06.872Z,101181.14
2022-10-13T22:00:16.145Z,101175.80
2022-10-13T22:05:23.882Z,101176.91
2022-10-13T22:10:32.664Z,101177.66
2022-10-13T22:15:48.497Z,101172.14
2022-10-13T22:20:56.181Z,101171.63
2022-10-13T22:26:03.579Z,101171.31
2022-10-13T22:31:13.310Z,101169.02
2022-10-13T22:36:23.422Z,101161.82
2022-10-13T22:41:30.527Z,101163.45
2022-10-13T22:46:39.189Z,101161.63
2022-10-13T22:51:46.115Z,101151.78
2022-10-13T22:56:53.066Z,101147.38
2022-10-13T23:02:00.177Z,101148.66
2022-10-13T23:07:08.677Z,101144.10
2022-10-13T23:12:15.581Z,101142.92
2022-10-13T23:17:22.810Z,101144.06
2022-10-13T23:22:31.601Z,101144.27
2022-10-13T23:27:41.338Z,101141.55
2022-10-13T23:32:48.313Z,101138.80
2022-10-13T23:37:55.727Z,101139.33
2022-10-13T23:43:02.831Z,101131.73
2022-10-13T23:48:10.187Z,101124.80
2022-10-13T23:53:20.628Z,101127.21
2022-10-13T23:58:27.609Z,101119.58
